createdAt,value
2023-06-07T00:00:46.794Z,76.42
2023-06-07T00:05:49.289Z,76.36
2023-06-07T00:10:51.682Z,76.38
2023-06-07T00:15:57.154Z,76.67
2023-06-07T00:20:59.692Z,76.75
2023-06-07T00:26:02.454Z,76.73
2023-06-07T00:31:05.976Z,76.79
2023-06-07T00:36:08.608Z,76.80
2023-06-07T00:41:15.069Z,76.46
2023-06-07T00:46:24.091Z,76.53
2023-06-07T00:51:34.573Z,76.42
2023-06-07T00:56:40.643Z,76.62
2023-06-07T01:05:15.311Z,76.67
2023-06-07T01:10:18.128Z,76.81
2023-06-07T01:15:21.523Z,76.77
2023-06-07T01:20:26.451Z,76.57
2023-06-07T01:25:33.618Z,76.66
2023-06-07T01:30:36.765Z,76.65
2023-06-07T01:35:44.349Z,76.61
2023-06-07T01:40:57.269Z,76.33
2023-06-07T01:46:03.936Z,76.33
2023-06-07T01:51:08.396Z,76.23
2023-06-07T01:56:57.900Z,75.86
2023-06-07T02:02:26.106Z,75.89
2023-06-07T02:07:31.284Z,75.92
2023-06-07T02:12:36.040Z,76.06
2023-06-07T02:18:02.785Z,75.84
2023-06-07T02:23:07.234Z,76.14
2023-06-07T02:28:10.040Z,76.37
2023-06-07T02:33:16.785Z,76.40
2023-06-07T02:38:19.285Z,76.27
2023-06-07T02:43:22.171Z,76.48
2023-06-07T02:48:24.473Z,76.49
2023-06-07T02:53:27.617Z,76.71
2023-06-07T02:58:30.199Z,76.82
2023-06-07T03:03:33.170Z,76.71
2023-06-07T03:08:40.627Z,76.67
2023-06-07T03:13:45.336Z,76.83
2023-06-07T03:18:50.636Z,77.00
2023-06-07T03:23:54.516Z,76.92
2023-06-07T03:28:57.653Z,76.97
2023-06-07T03:34:04.276Z,77.04
2023-06-07T03:39:06.929Z,76.85
2023-06-07T03:44:09.289Z,76.86
2023-06-07T03:49:14.356Z,76.88
2023-06-07T03:54:17.136Z,76.68
2023-06-07T03:59:21.980Z,76.95
2023-06-07T04:04:28.830Z,76.80
2023-06-07T04:09:36.713Z,76.88
2023-06-07T04:14:38.839Z,77.01
2023-06-07T04:19:50.754Z,76.63
2023-06-07T04:24:58.756Z,76.83
2023-06-07T04:30:05.674Z,76.88
2023-06-07T04:35:11.296Z,77.08
2023-06-07T04:40:15.375Z,77.35
2023-06-07T04:45:18.296Z,77.37
2023-06-07T04:50:22.154Z,77.21
2023-06-07T04:55:24.837Z,77.37
2023-06-07T05:00:38.037Z,77.16
2023-06-07T05:05:44.224Z,77.14
2023-06-07T05:10:47.131Z,77.30
2023-06-07T05:15:52.452Z,77.02
2023-06-07T05:20:55.190Z,77.14
2023-06-07T05:26:05.183Z,77.11
2023-06-07T05:31:12.164Z,76.78
2023-06-07T05:36:17.133Z,76.64
2023-06-07T05:41:21.867Z,76.37
2023-06-07T05:46:25.159Z,75.90
2023-06-07T05:51:27.495Z,75.44
2023-06-07T05:56:54.631Z,75.79
2023-06-07T06:01:56.769Z,75.70
2023-06-07T06:06:59.058Z,75.30
2023-06-07T06:12:02.915Z,75.34
2023-06-07T06:17:06.984Z,75.16
2023-06-07T06:22:11.351Z,74.86
2023-06-07T06:27:20.918Z,74.41
2023-06-07T06:32:23.931Z,74.38
2023-06-07T06:37:27.892Z,74.38
2023-06-07T06:42:30.170Z,74.51
2023-06-07T06:47:46.149Z,74.23
2023-06-07T06:52:48.474Z,73.92
2023-06-07T06:57:50.786Z,73.81
2023-06-07T07:02:59.054Z,73.88
2023-06-07T07:08:05.463Z,73.37
2023-06-07T07:13:12.097Z,73.59
2023-06-07T07:18:14.549Z,73.31
2023-06-07T07:23:20.836Z,73.28
2023-06-07T07:28:22.914Z,73.74
2023-06-07T07:33:25.264Z,73.61
2023-06-07T07:38:33.669Z,72.80
2023-06-07T07:43:38.269Z,72.61
2023-06-07T07:48:41.483Z,71.98
2023-06-07T07:53:48.131Z,70.90
2023-06-07T07:58:54.128Z,70.20
2023-06-07T08:03:57.561Z,70.52
2023-06-07T08:09:02.982Z,69.77
2023-06-07T08:14:05.400Z,69.51
2023-06-07T08:19:13.266Z,69.79
2023-06-07T08:24:20.384Z,70.02
2023-06-07T08:29:23.207Z,69.66
2023-06-07T08:34:31.699Z,69.85
2023-06-07T08:39:40.005Z,69.30
2023-06-07T08:44:42.940Z,69.54
2023-06-07T08:49:48.281Z,69.41
2023-06-07T08:54:52.350Z,68.77
2023-06-07T08:59:55.609Z,67.96
2023-06-07T09:05:06.568Z,65.90
2023-06-07T09:10:11.899Z,65.38
2023-06-07T09:15:23.940Z,66.26
2023-06-07T09:20:32.115Z,65.61
2023-06-07T09:25:35.289Z,65.18
2023-06-07T09:30:52.437Z,65.34
2023-06-07T09:36:14.809Z,64.61
2023-06-07T09:41:17.918Z,65.94
2023-06-07T09:46:20.852Z,66.08
2023-06-07T09:51:25.634Z,66.02
2023-06-07T09:56:28.378Z,65.61
2023-06-07T10:01:43.780Z,65.58
2023-06-07T10:06:47.069Z,66.48
2023-06-07T10:11:56.696Z,65.93
2023-06-07T10:17:08.147Z,67.44
2023-06-07T10:22:20.650Z,67.96
2023-06-07T10:27:24.972Z,67.04
2023-06-07T10:32:36.120Z,66.80
2023-06-07T10:37:39.715Z,66.75
2023-06-07T10:42:45.570Z,67.04
2023-06-07T10:47:50.974Z,66.19
2023-06-07T10:53:03.817Z,65.66
2023-06-07T10:58:26.605Z,65.05
2023-06-07T11:03:37.483Z,63.37
2023-06-07T11:08:46.291Z,63.46
2023-06-07T11:14:15.309Z,62.70
2023-06-07T11:19:19.971Z,61.79
2023-06-07T11:24:23.232Z,62.67
2023-06-07T11:29:32.979Z,62.33
2023-06-07T11:34:36.572Z,62.32
2023-06-07T11:39:40.886Z,61.74
2023-06-07T11:44:50.000Z,60.91
2023-06-07T11:49:52.278Z,62.04
2023-06-07T11:54:54.418Z,61.53
2023-06-07T11:59:57.996Z,61.42
2023-06-07T12:05:00.311Z,62.21
2023-06-07T12:10:29.252Z,62.11
2023-06-07T12:15:31.525Z,61.74
2023-06-07T12:20:37.563Z,61.21
2023-06-07T12:25:50.111Z,62.57
2023-06-07T12:30:54.007Z,63.22
2023-06-07T12:35:59.638Z,62.74
2023-06-07T12:41:01.947Z,63.24
2023-06-07T12:46:04.297Z,64.08
2023-06-07T12:51:07.784Z,63.97
2023-06-07T12:56:11.563Z,62.77
2023-06-07T13:01:14.457Z,64.20
2023-06-07T13:06:16.862Z,64.81
2023-06-07T13:11:22.784Z,64.68
2023-06-07T13:16:32.066Z,64.38
2023-06-07T13:21:34.467Z,64.38
2023-06-07T13:26:36.810Z,64.37
2023-06-07T13:31:38.962Z,64.17
2023-06-07T13:36:41.637Z,64.51
2023-06-07T13:42:09.242Z,63.21
2023-06-07T13:47:12.660Z,63.13
2023-06-07T13:52:27.446Z,62.64
2023-06-07T13:57:33.950Z,62.68
2023-06-07T14:03:04.955Z,62.02
2023-06-07T14:08:12.971Z,63.25
2023-06-07T14:13:27.153Z,63.30
2023-06-07T14:18:37.186Z,62.85
2023-06-07T14:23:43.786Z,63.21
2023-06-07T14:28:57.377Z,63.35
2023-06-07T14:34:25.571Z,62.80
2023-06-07T14:39:27.939Z,63.84
2023-06-07T14:44:30.450Z,63.71
2023-06-07T14:49:35.877Z,64.69
2023-06-07T14:54:38.305Z,64.50
2023-06-07T14:59:40.722Z,64.58
2023-06-07T15:04:43.867Z,64.78
2023-06-07T15:09:46.101Z,65.03
2023-06-07T15:15:17.022Z,66.20
2023-06-07T15:20:19.429Z,66.70
2023-06-07T15:25:21.978Z,66.64
2023-06-07T15:30:26.955Z,66.92
2023-06-07T15:35:29.143Z,67.14
2023-06-07T15:40:31.471Z,67.36
2023-06-07T15:45:33.883Z,67.47
2023-06-07T15:50:39.757Z,68.09
2023-06-07T15:55:43.066Z,68.20
2023-06-07T16:00:48.681Z,68.65
2023-06-07T16:05:52.462Z,68.87
2023-06-07T16:10:57.242Z,68.78
2023-06-07T16:15:59.458Z,69.36
2023-06-07T16:21:01.969Z,69.68
2023-06-07T16:26:04.228Z,70.57
2023-06-07T16:31:06.611Z,70.71
2023-06-07T16:36:11.031Z,70.54
2023-06-07T16:41:13.216Z,70.42
2023-06-07T16:46:15.760Z,69.75
2023-06-07T16:51:18.022Z,69.79
2023-06-07T16:56:20.322Z,70.47
2023-06-07T17:01:25.355Z,71.22
2023-06-07T17:06:28.267Z,70.69
2023-06-07T17:11:30.732Z,70.59
2023-06-07T17:16:58.511Z,70.92
2023-06-07T17:22:07.146Z,71.37
2023-06-07T17:27:16.517Z,71.76
2023-06-07T17:32:24.604Z,72.34
2023-06-07T17:37:52.092Z,72.73
2023-06-07T17:43:04.178Z,72.91
2023-06-07T17:48:11.133Z,72.15
2023-06-07T17:53:15.048Z,71.83
2023-06-07T17:58:18.748Z,72.13
2023-06-07T18:03:21.239Z,72.20
2023-06-07T18:08:26.644Z,72.94
2023-06-07T18:13:36.205Z,73.18
2023-06-07T18:18:38.956Z,73.21
2023-06-07T18:23:47.646Z,73.73
2023-06-07T18:28:50.814Z,73.88
2023-06-07T18:33:53.188Z,74.08
2023-06-07T18:39:02.685Z,74.31
2023-06-07T18:44:06.397Z,74.55
2023-06-07T18:49:12.077Z,74.46
2023-06-07T18:54:14.364Z,74.79
2023-06-07T18:59:26.882Z,74.88
2023-06-07T19:04:30.342Z,75.04
2023-06-07T19:09:32.992Z,75.38
2023-06-07T19:14:40.323Z,75.53
2023-06-07T19:19:47.473Z,75.67
2023-06-07T19:24:49.725Z,75.59
2023-06-07T19:29:52.251Z,75.68
2023-06-07T19:34:56.303Z,75.57
2023-06-07T19:39:58.646Z,75.51
2023-06-07T19:45:03.558Z,75.29
2023-06-07T19:50:06.798Z,75.35
2023-06-07T19:55:10.359Z,75.24
2023-06-07T20:00:17.271Z,75.31
2023-06-07T20:05:21.247Z,75.34
2023-06-07T20:10:23.765Z,75.05
2023-06-07T20:15:27.667Z,75.35
2023-06-07T20:20:36.369Z,75.48
2023-06-07T20:25:39.784Z,75.37
2023-06-07T20:30:42.146Z,75.61
2023-06-07T20:35:44.319Z,75.76
2023-06-07T20:40:46.699Z,75.80
2023-06-07T20:45:48.989Z,75.92
2023-06-07T20:50:55.468Z,76.00
2023-06-07T20:56:01.855Z,76.30
2023-06-07T21:01:04.024Z,76.62
2023-06-07T21:06:06.822Z,76.58
2023-06-07T21:11:11.528Z,76.64
2023-06-07T21:16:13.833Z,76.68
2023-06-07T21:21:16.238Z,76.57
2023-06-07T21:26:18.235Z,76.66
2023-06-07T21:31:20.450Z,76.81
2023-06-07T21:36:22.585Z,76.82
2023-06-07T21:41:26.969Z,76.96
2023-06-07T21:46:32.326Z,77.14
2023-06-07T21:51:37.877Z,77.05
2023-06-07T21:56:42.307Z,77.37
2023-06-07T22:01:45.094Z,77.46
2023-06-07T22:06:51.194Z,77.99
2023-06-07T22:11:55.707Z,78.04
2023-06-07T22:17:01.391Z,78.33
2023-06-07T22:22:04.515Z,78.50
2023-06-07T22:27:13.355Z,78.75
2023-06-07T22:32:16.423Z,79.05
2023-06-07T22:37:23.240Z,79.67
2023-06-07T22:42:25.588Z,79.52
2023-06-07T22:47:34.148Z,79.59
2023-06-07T22:52:39.948Z,80.00
2023-06-07T22:57:43.453Z,79.54
2023-06-07T23:02:45.912Z,79.64
2023-06-07T23:07:52.404Z,79.55
2023-06-07T23:12:58.231Z,79.80
2023-06-07T23:18:00.933Z,79.74
2023-06-07T23:23:05.890Z,79.65
2023-06-07T23:28:08.028Z,79.70
2023-06-07T23:33:10.281Z,79.98
2023-06-07T23:38:12.721Z,80.20
2023-06-07T23:48:20.605Z,80.38
2023-06-07T23:53:24.045Z,80.41
2023-06-07T23:58:26.195Z,80.43
